Time;durP1;ratioP1;P1;durP2;ratioP2;P2;SDS_P1;SDS_P2;PMS_P1;PMS_P2;Temp;Humidity;BMP_temperature;BMP_pressure;BME280_temperature;BME280_humidity;BME280_pressure;Samples;Min_cycle;Max_cycle;Signal;HPM_P1;HPM_P2
2021/09/15 00:01:33;;;;;;;6.75;3.97;;;22.30;99.90;;;;;;4151651;28;20041;-74
2021/09/15 00:03:35;;;;;;;7.05;4.15;;;22.20;99.90;;;;;;4152663;28;20052;-74
2021/09/15 00:05:35;;;;;;;8.93;3.70;;;22.20;99.90;;;;;;4155574;28;20038;-75
2021/09/15 00:07:36;;;;;;;6.65;4.50;;;22.20;99.90;;;;;;4153623;28;20144;-75
2021/09/15 00:09:36;;;;;;;8.57;4.43;;;22.20;99.90;;;;;;4151971;28;20045;-75
2021/09/15 00:11:37;;;;;;;8.05;4.18;;;22.20;99.90;;;;;;4154133;28;20033;-74
2021/09/15 00:13:41;;;;;;;5.18;3.72;;;22.20;99.90;;;;;;4153925;28;20041;-75
2021/09/15 00:15:42;;;;;;;5.70;4.25;;;22.30;99.90;;;;;;4174545;28;20063;-74
2021/09/15 00:17:42;;;;;;;4.85;3.67;;;22.20;99.90;;;;;;4172656;28;20107;-74
2021/09/15 00:19:43;;;;;;;6.03;3.53;;;22.20;99.90;;;;;;4172983;28;20657;-75
2021/09/15 00:21:43;;;;;;;5.38;4.00;;;22.30;99.90;;;;;;4173730;28;20534;-75
2021/09/15 00:23:44;;;;;;;6.68;3.97;;;22.30;99.90;;;;;;4173057;28;20500;-74
2021/09/15 00:25:45;;;;;;;6.53;3.90;;;22.30;99.90;;;;;;4174245;28;20033;-74
2021/09/15 00:27:45;;;;;;;5.20;3.78;;;22.30;99.90;;;;;;4173046;28;20041;-75
2021/09/15 00:29:46;;;;;;;5.57;4.05;;;22.30;99.90;;;;;;4174496;28;20045;-75
2021/09/15 00:31:46;;;;;;;5.15;4.30;;;22.30;99.90;;;;;;4173186;28;20107;-74
2021/09/15 00:33:47;;;;;;;5.80;4.32;;;22.30;99.90;;;;;;4173350;28;20033;-74
2021/09/15 00:35:48;;;;;;;4.85;3.67;;;22.20;99.90;;;;;;4173821;28;20597;-75
2021/09/15 00:37:48;;;;;;;5.93;4.35;;;22.20;99.90;;;;;;4173859;28;20033;-74
2021/09/15 00:39:49;;;;;;;5.38;4.40;;;22.20;99.90;;;;;;4173963;28;20045;-74
2021/09/15 00:41:49;;;;;;;4.80;3.85;;;22.20;99.90;;;;;;4172922;28;20041;-75
2021/09/15 00:44:08;;;;;;;5.63;4.30;;;22.20;99.90;;;;;;4174293;28;20120;-75
2021/09/15 00:46:09;;;;;;;4.97;3.80;;;22.20;99.90;;;;;;4169852;28;20103;-75
2021/09/15 00:48:09;;;;;;;7.18;4.65;;;22.20;99.90;;;;;;4173710;28;20037;-74
2021/09/15 00:50:10;;;;;;;5.97;3.95;;;22.10;99.90;;;;;;4173860;28;20064;-74
2021/09/15 00:52:11;;;;;;;4.93;4.28;;;22.10;99.90;;;;;;4171923;28;20094;-75
2021/09/15 00:54:13;;;;;;;5.32;3.70;;;22.10;99.90;;;;;;4174657;28;20101;-75
2021/09/15 00:56:13;;;;;;;7.70;4.77;;;22.10;99.90;;;;;;4174537;28;20096;-75
2021/09/15 00:58:15;;;;;;;4.47;4.00;;;22.10;99.90;;;;;;4173512;28;20638;-74
2021/09/15 01:00:16;;;;;;;7.53;4.03;;;22.10;99.90;;;;;;4171966;28;20499;-74
2021/09/15 01:02:17;;;;;;;6.82;4.78;;;22.10;99.90;;;;;;4172833;28;20041;-75
2021/09/15 01:04:18;;;;;;;6.90;4.50;;;22.10;99.90;;;;;;4171632;28;20041;-75
2021/09/15 01:06:18;;;;;;;6.50;4.90;;;22.10;99.90;;;;;;4173862;28;20562;-74
2021/09/15 01:08:19;;;;;;;6.88;4.50;;;22.10;99.90;;;;;;4154925;28;20053;-74
2021/09/15 01:10:21;;;;;;;6.55;4.47;;;22.00;99.90;;;;;;4172121;28;20503;-74
2021/09/15 01:12:21;;;;;;;5.53;4.43;;;22.00;99.90;;;;;;4174224;28;20577;-75
2021/09/15 01:14:22;;;;;;;6.32;4.40;;;22.00;99.90;;;;;;4176750;28;20037;-74
2021/09/15 01:16:23;;;;;;;5.70;4.22;;;22.00;99.90;;;;;;4171491;28;20045;-74
2021/09/15 01:18:24;;;;;;;6.35;4.40;;;22.00;99.90;;;;;;4177812;28;20048;-74
2021/09/15 01:20:25;;;;;;;7.82;4.88;;;22.00;99.90;;;;;;4175551;28;20636;-74
2021/09/15 01:22:26;;;;;;;7.53;4.68;;;22.00;99.90;;;;;;4177417;28;20039;-75
2021/09/15 01:24:29;;;;;;;6.95;5.38;;;21.90;99.90;;;;;;4176929;28;20041;-74
2021/09/15 01:26:34;;;;;;;8.05;4.63;;;21.90;99.90;;;;;;4178008;28;20226;-74
2021/09/15 01:28:34;;;;;;;6.35;4.28;;;21.90;99.90;;;;;;4175443;28;20033;-75
2021/09/15 01:30:35;;;;;;;6.35;5.15;;;21.90;99.90;;;;;;4177282;28;20040;-74
2021/09/15 01:32:36;;;;;;;6.07;4.97;;;21.90;99.90;;;;;;4174456;28;20037;-74
2021/09/15 01:34:39;;;;;;;7.65;5.53;;;21.90;99.90;;;;;;4178964;28;20090;-75
2021/09/15 01:36:40;;;;;;;6.75;5.40;;;21.80;99.90;;;;;;4172804;28;20037;-74
2021/09/15 01:38:40;;;;;;;6.78;4.90;;;21.80;99.90;;;;;;4171440;28;20496;-75
2021/09/15 01:40:41;;;;;;;6.45;5.10;;;21.80;99.90;;;;;;4156148;28;20049;-74
2021/09/15 01:42:42;;;;;;;9.32;5.43;;;21.80;99.90;;;;;;4154522;28;20041;-75
2021/09/15 01:44:45;;;;;;;6.70;4.78;;;21.80;99.90;;;;;;4153175;28;20404;-75
2021/09/15 01:46:45;;;;;;;6.60;4.75;;;21.80;99.90;;;;;;4150273;28;20045;-74
2021/09/15 01:48:46;;;;;;;7.50;5.70;;;21.80;99.90;;;;;;4173945;28;20045;-75
2021/09/15 01:50:46;;;;;;;8.38;5.15;;;21.80;99.90;;;;;;4170574;28;20045;-75
2021/09/15 01:52:49;;;;;;;6.45;5.15;;;21.80;99.90;;;;;;4171569;28;20065;-74
2021/09/15 01:54:50;;;;;;;8.45;5.60;;;21.80;99.90;;;;;;4171725;28;20465;-74
2021/09/15 01:56:51;;;;;;;6.70;5.88;;;21.80;99.90;;;;;;4171940;28;20132;-75
2021/09/15 01:58:52;;;;;;;6.90;5.20;;;21.80;99.90;;;;;;4175193;28;20061;-75
2021/09/15 02:00:52;;;;;;;6.80;5.22;;;21.80;99.90;;;;;;4171055;28;20037;-75
2021/09/15 02:02:53;;;;;;;6.15;5.18;;;21.80;99.90;;;;;;4174445;28;20124;-74
2021/09/15 02:04:53;;;;;;;5.95;4.72;;;21.80;99.90;;;;;;4174281;28;20048;-74
2021/09/15 02:06:55;;;;;;;5.40;4.20;;;21.80;99.90;;;;;;4178507;28;20037;-75
2021/09/15 02:08:55;;;;;;;5.32;4.57;;;21.80;99.90;;;;;;4174164;28;20095;-75
2021/09/15 02:10:56;;;;;;;6.82;4.53;;;21.80;99.90;;;;;;4176871;28;20443;-75
2021/09/15 02:12:56;;;;;;;6.82;5.43;;;21.90;99.90;;;;;;4174757;28;20070;-74
2021/09/15 02:14:57;;;;;;;7.95;5.07;;;21.90;99.90;;;;;;4176387;28;20473;-75
2021/09/15 02:16:58;;;;;;;5.00;4.50;;;21.90;99.90;;;;;;4174868;28;20449;-75
2021/09/15 02:18:59;;;;;;;8.70;5.18;;;21.90;99.90;;;;;;4174672;28;20040;-75
2021/09/15 02:20:59;;;;;;;6.07;5.00;;;21.90;99.90;;;;;;4175607;28;20077;-75
2021/09/15 02:23:00;;;;;;;5.80;4.78;;;21.90;99.90;;;;;;4175830;28;20128;-74
2021/09/15 02:25:03;;;;;;;6.15;4.93;;;21.90;99.90;;;;;;4173292;28;20041;-74
2021/09/15 02:27:03;;;;;;;11.18;4.72;;;21.90;99.90;;;;;;4170304;28;20033;-75
2021/09/15 02:29:04;;;;;;;8.38;5.15;;;21.90;99.90;;;;;;4159187;28;20037;-74
2021/09/15 02:31:06;;;;;;;6.47;5.28;;;21.90;99.90;;;;;;4171364;28;20697;-75
2021/09/15 02:33:07;;;;;;;7.15;5.22;;;21.90;99.90;;;;;;4173122;28;20785;-74
2021/09/15 02:35:07;;;;;;;8.95;5.53;;;21.90;99.90;;;;;;4175417;28;20068;-75
2021/09/15 02:37:08;;;;;;;9.98;5.35;;;21.90;99.90;;;;;;4172711;28;20037;-75
2021/09/15 02:39:09;;;;;;;6.65;5.28;;;21.90;99.90;;;;;;4172961;28;20033;-75
2021/09/15 02:41:09;;;;;;;8.18;5.13;;;21.90;99.90;;;;;;4173860;28;20033;-75
2021/09/15 02:43:10;;;;;;;9.88;6.30;;;21.90;99.90;;;;;;4159256;28;20048;-75
2021/09/15 02:45:11;;;;;;;8.13;5.95;;;21.90;99.90;;;;;;4176875;28;20779;-75
2021/09/15 02:47:11;;;;;;;7.13;5.43;;;21.90;99.90;;;;;;4174382;28;20047;-75
2021/09/15 02:49:12;;;;;;;7.40;5.85;;;21.90;99.90;;;;;;4177256;28;20033;-74
2021/09/15 02:51:13;;;;;;;6.88;5.57;;;21.90;99.90;;;;;;4174650;28;20036;-74
2021/09/15 02:53:13;;;;;;;7.95;5.65;;;21.80;99.90;;;;;;4159330;28;20061;-75
2021/09/15 02:55:14;;;;;;;8.63;6.30;;;21.80;99.90;;;;;;4173968;28;20052;-74
2021/09/15 02:57:15;;;;;;;8.70;5.97;;;21.80;99.90;;;;;;4172798;28;20388;-74
2021/09/15 02:59:15;;;;;;;9.65;5.50;;;21.90;99.90;;;;;;4177862;28;20033;-74
2021/09/15 03:01:16;;;;;;;7.60;5.68;;;21.80;99.90;;;;;;4173286;28;20025;-74
2021/09/15 03:03:16;;;;;;;7.70;6.13;;;21.80;99.90;;;;;;4172921;28;20030;-74
2021/09/15 03:05:17;;;;;;;8.38;5.35;;;21.80;99.90;;;;;;4172813;28;20110;-74
2021/09/15 03:07:18;;;;;;;6.75;5.10;;;21.80;99.90;;;;;;4171410;28;20037;-74
2021/09/15 03:09:18;;;;;;;7.30;5.57;;;21.80;99.90;;;;;;4170330;28;20032;-74
2021/09/15 03:11:19;;;;;;;9.50;5.93;;;21.70;99.90;;;;;;4170683;28;20033;-74
2021/09/15 03:13:20;;;;;;;6.07;5.25;;;21.80;99.90;;;;;;4171547;28;20036;-74
2021/09/15 03:15:20;;;;;;;8.57;5.80;;;21.80;99.90;;;;;;4169766;28;20090;-74
2021/09/15 03:17:21;;;;;;;10.40;5.93;;;21.80;99.90;;;;;;4171218;28;20104;-74
2021/09/15 03:19:21;;;;;;;6.50;5.35;;;21.80;99.90;;;;;;4172186;28;20048;-74
2021/09/15 03:21:22;;;;;;;7.38;5.85;;;21.80;99.90;;;;;;4170722;28;20036;-74
2021/09/15 03:23:23;;;;;;;8.63;5.75;;;21.80;99.90;;;;;;4169693;28;20060;-74
2021/09/15 03:25:23;;;;;;;6.55;5.22;;;21.80;99.90;;;;;;4172434;28;20075;-75
2021/09/15 03:27:24;;;;;;;7.50;5.32;;;21.80;99.90;;;;;;4171302;28;20051;-74
2021/09/15 03:29:24;;;;;;;6.53;4.85;;;21.80;99.90;;;;;;4170315;28;20082;-75
2021/09/15 03:31:25;;;;;;;7.50;5.70;;;21.80;99.90;;;;;;4172283;28;20057;-74
2021/09/15 03:33:25;;;;;;;7.90;5.35;;;21.80;99.90;;;;;;4172255;28;20597;-74
2021/09/15 03:35:27;;;;;;;6.32;5.15;;;21.80;99.90;;;;;;4170986;28;20053;-74
2021/09/15 03:37:28;;;;;;;6.57;5.05;;;21.80;99.90;;;;;;4169401;28;20037;-74
2021/09/15 03:39:29;;;;;;;6.55;4.43;;;21.90;99.90;;;;;;4170363;28;20496;-74
2021/09/15 03:41:29;;;;;;;7.20;5.00;;;21.90;99.90;;;;;;4170098;28;20466;-74
2021/09/15 03:43:30;;;;;;;4.65;4.15;;;21.90;99.90;;;;;;4171852;28;20029;-74
2021/09/15 03:45:30;;;;;;;11.02;5.45;;;21.90;99.90;;;;;;4165499;28;20029;-74
2021/09/15 03:47:31;;;;;;;7.43;5.45;;;21.90;99.90;;;;;;4172742;28;20400;-75
2021/09/15 03:49:32;;;;;;;6.85;5.43;;;21.90;99.90;;;;;;4170314;28;20744;-74
2021/09/15 03:51:33;;;;;;;7.97;5.78;;;21.90;99.90;;;;;;4163791;28;20045;-74
2021/09/15 03:53:34;;;;;;;5.57;4.78;;;21.90;99.90;;;;;;4170850;28;20469;-74
2021/09/15 03:55:34;;;;;;;5.55;4.57;;;21.90;99.90;;;;;;4171408;28;20048;-74
2021/09/15 03:57:35;;;;;;;7.75;5.07;;;21.90;99.90;;;;;;4171187;28;20048;-74
2021/09/15 03:59:36;;;;;;;5.82;4.78;;;21.90;99.90;;;;;;4170496;28;20025;-74
2021/09/15 04:01:36;;;;;;;7.35;5.63;;;21.90;99.90;;;;;;4170319;28;20563;-74
2021/09/15 04:03:37;;;;;;;7.75;4.85;;;21.90;99.90;;;;;;4170086;28;20492;-74
2021/09/15 04:05:38;;;;;;;7.65;5.63;;;21.90;99.90;;;;;;4170744;28;20554;-74
2021/09/15 04:07:39;;;;;;;7.80;5.45;;;21.90;99.90;;;;;;4169132;28;20041;-74
2021/09/15 04:09:40;;;;;;;6.32;5.22;;;21.90;99.90;;;;;;4160098;28;20041;-74
2021/09/15 04:11:40;;;;;;;9.80;5.90;;;21.90;99.90;;;;;;4162194;28;20044;-74
2021/09/15 04:13:41;;;;;;;6.95;4.85;;;21.90;99.90;;;;;;4169884;28;20118;-74
2021/09/15 04:15:42;;;;;;;7.38;5.93;;;21.90;99.90;;;;;;4171453;28;20037;-74
2021/09/15 04:17:42;;;;;;;7.50;5.22;;;21.90;99.90;;;;;;4177676;28;20045;-74
2021/09/15 04:19:43;;;;;;;6.82;5.13;;;21.90;99.90;;;;;;4153229;28;20042;-74
2021/09/15 04:21:44;;;;;;;7.03;5.38;;;21.90;99.90;;;;;;4151592;28;20041;-74
2021/09/15 04:32:44;;;;;;;5.93;4.90;;;21.80;99.90;;;;;;4162039;28;20049;-74
2021/09/15 04:34:44;;;;;;;5.90;5.28;;;21.90;99.90;;;;;;4165956;28;20044;-74
2021/09/15 04:36:45;;;;;;;7.05;5.00;;;21.80;99.90;;;;;;4170818;28;20036;-74
2021/09/15 04:38:46;;;;;;;6.28;5.30;;;21.90;99.90;;;;;;4165040;28;20052;-74
2021/09/15 04:40:47;;;;;;;8.38;5.50;;;21.90;99.90;;;;;;4169052;28;20433;-74
2021/09/15 04:42:47;;;;;;;7.95;5.60;;;21.80;99.90;;;;;;4168721;28;20048;-74
2021/09/15 04:44:48;;;;;;;8.55;5.95;;;21.80;99.90;;;;;;4171440;28;20044;-74
2021/09/15 04:46:48;;;;;;;8.38;5.95;;;21.80;99.90;;;;;;4169499;28;20899;-74
2021/09/15 04:48:50;;;;;;;8.45;5.47;;;21.80;99.90;;;;;;4163929;28;20049;-74
2021/09/15 04:50:50;;;;;;;6.68;5.18;;;21.80;99.90;;;;;;4167418;28;20049;-74
2021/09/15 04:52:51;;;;;;;6.80;5.25;;;21.80;99.90;;;;;;4171091;28;20095;-73
2021/09/15 04:54:52;;;;;;;6.03;5.28;;;21.80;99.90;;;;;;4169217;28;20116;-73
2021/09/15 04:56:52;;;;;;;7.95;5.25;;;21.80;99.90;;;;;;4169790;28;20182;-74
2021/09/15 04:58:53;;;;;;;7.53;5.60;;;21.80;99.90;;;;;;4172092;28;20082;-73
2021/09/15 05:00:54;;;;;;;8.38;5.18;;;21.70;99.90;;;;;;4172003;28;20062;-73
2021/09/15 05:02:54;;;;;;;9.00;5.80;;;21.70;99.90;;;;;;4168414;28;20124;-73
2021/09/15 05:04:55;;;;;;;12.40;6.03;;;21.70;99.90;;;;;;4171718;28;20559;-74
2021/09/15 05:06:56;;;;;;;10.15;5.80;;;21.70;99.90;;;;;;4170034;28;20049;-73
2021/09/15 05:08:56;;;;;;;8.50;6.43;;;21.60;99.90;;;;;;4170806;28;20045;-73
2021/09/15 05:10:57;;;;;;;11.18;6.47;;;21.60;99.90;;;;;;4171246;28;20091;-73
2021/09/15 05:12:58;;;;;;;13.15;5.97;;;21.50;99.90;;;;;;4171941;28;20068;-73
2021/09/15 05:14:58;;;;;;;9.18;5.95;;;21.50;99.90;;;;;;4169144;28;20037;-72
2021/09/15 05:16:59;;;;;;;14.63;5.85;;;21.50;99.90;;;;;;4170311;28;20037;-73
2021/09/15 05:18:59;;;;;;;9.60;6.03;;;21.50;99.90;;;;;;4171668;28;20699;-73
2021/09/15 05:21:00;;;;;;;8.98;6.22;;;21.40;99.90;;;;;;4171696;28;21279;-73
2021/09/15 05:23:01;;;;;;;10.07;7.10;;;21.40;99.90;;;;;;4173581;28;20053;-73
2021/09/15 05:25:02;;;;;;;7.97;6.50;;;21.40;99.90;;;;;;4168238;28;20475;-73
2021/09/15 05:27:03;;;;;;;11.80;8.07;;;21.30;99.90;;;;;;4155151;28;20038;-73
2021/09/15 05:29:04;;;;;;;10.73;8.07;;;21.30;99.90;;;;;;4151319;28;20049;-73
2021/09/15 05:31:05;;;;;;;12.82;8.45;;;21.20;99.90;;;;;;4151512;28;20048;-73
2021/09/15 05:33:08;;;;;;;11.27;8.75;;;21.10;99.90;;;;;;4151843;28;20025;-73
2021/09/15 05:35:10;;;;;;;15.35;9.55;;;21.00;99.90;;;;;;4151819;28;20037;-73
2021/09/15 05:37:10;;;;;;;10.82;7.07;;;20.80;99.90;;;;;;4151781;28;20516;-72
2021/09/15 05:39:11;;;;;;;11.48;8.30;;;20.80;99.90;;;;;;4152526;28;20053;-74
2021/09/15 05:41:13;;;;;;;13.70;7.63;;;20.70;99.90;;;;;;4147844;28;20026;-75
2021/09/15 05:43:13;;;;;;;11.73;8.52;;;20.70;99.90;;;;;;4151108;28;20041;-75
2021/09/15 05:45:14;;;;;;;16.30;9.40;;;20.70;99.90;;;;;;4150283;28;20441;-74
2021/09/15 05:47:14;;;;;;;14.75;8.65;;;20.70;99.90;;;;;;4149436;28;20030;-74
2021/09/15 05:49:15;;;;;;;11.15;6.65;;;20.70;99.90;;;;;;4151040;28;20242;-74
2021/09/15 05:51:16;;;;;;;12.82;8.95;;;20.60;99.90;;;;;;4151746;28;20146;-74
2021/09/15 05:53:16;;;;;;;14.38;8.00;;;20.50;99.90;;;;;;4151236;28;20032;-74
2021/09/15 05:55:20;;;;;;;10.88;7.32;;;20.50;99.90;;;;;;4134738;28;20136;-74
2021/09/15 05:57:21;;;;;;;12.73;7.35;;;20.50;99.90;;;;;;4150519;28;20045;-74
2021/09/15 05:59:21;;;;;;;9.52;6.78;;;20.50;99.90;;;;;;4151464;28;21517;-74
2021/09/15 06:01:22;;;;;;;8.07;5.95;;;20.50;99.90;;;;;;4149997;28;20854;-73
2021/09/15 06:03:22;;;;;;;7.28;5.68;;;20.40;99.90;;;;;;4152711;28;20370;-73
2021/09/15 06:05:23;;;;;;;9.70;5.32;;;20.40;99.90;;;;;;4154565;28;20086;-73
2021/09/15 06:07:24;;;;;;;8.25;5.80;;;20.40;99.90;;;;;;4153243;28;21271;-72
2021/09/15 06:09:24;;;;;;;10.07;6.03;;;20.50;99.90;;;;;;4153707;28;20129;-72
2021/09/15 06:11:26;;;;;;;11.57;6.65;;;20.50;99.90;;;;;;4153348;28;20041;-72
2021/09/15 06:13:27;;;;;;;12.57;6.13;;;20.50;99.90;;;;;;4155242;28;20092;-73
2021/09/15 06:15:28;;;;;;;8.32;5.47;;;20.50;99.90;;;;;;4154953;28;20030;-73
2021/09/15 06:17:28;;;;;;;8.82;5.78;;;20.50;99.90;;;;;;4151843;28;20041;-73
2021/09/15 06:19:29;;;;;;;10.07;6.35;;;20.50;99.90;;;;;;4154215;28;20037;-73
2021/09/15 06:21:29;;;;;;;8.13;5.68;;;20.50;99.90;;;;;;4155152;28;20041;-73
2021/09/15 06:23:31;;;;;;;10.82;6.03;;;20.50;99.90;;;;;;4151410;28;20052;-73
2021/09/15 06:25:32;;;;;;;11.25;6.13;;;20.50;99.90;;;;;;4154763;28;20477;-73
2021/09/15 06:27:35;;;;;;;7.82;5.68;;;20.50;99.90;;;;;;4153375;28;20033;-73
2021/09/15 06:29:35;;;;;;;;;;;20.50;99.90;;;;;;4153167;28;20041;-73
2021/09/15 06:31:36;;;;;;;7.45;4.72;;;20.50;99.90;;;;;;4153791;28;19924;-73
2021/09/15 06:33:37;;;;;;;8.45;5.20;;;20.50;99.90;;;;;;4154713;28;20406;-73
2021/09/15 06:35:37;;;;;;;7.50;5.20;;;20.50;99.90;;;;;;4154785;28;20021;-73
2021/09/15 06:37:39;;;;;;;9.80;5.38;;;20.60;99.90;;;;;;4153542;28;20692;-74
2021/09/15 06:39:40;;;;;;;6.07;4.75;;;20.60;99.90;;;;;;4151724;28;20029;-74
2021/09/15 06:41:41;;;;;;;7.18;4.20;;;20.60;99.90;;;;;;4150856;28;20124;-74
2021/09/15 06:43:44;;;;;;;7.22;5.07;;;20.60;99.90;;;;;;4150331;28;20524;-74
2021/09/15 06:45:45;;;;;;;8.27;5.10;;;20.60;99.90;;;;;;4151256;28;20041;-74
2021/09/15 06:47:46;;;;;;;7.65;5.15;;;20.60;99.90;;;;;;4149497;28;20045;-74
2021/09/15 06:49:46;;;;;;;9.65;5.22;;;20.60;99.90;;;;;;4150906;28;20501;-75
2021/09/15 06:51:47;;;;;;;11.43;4.88;;;20.70;99.90;;;;;;4151379;28;20049;-75
2021/09/15 06:53:48;;;;;;;7.30;4.80;;;20.70;99.90;;;;;;4152176;28;20036;-75
2021/09/15 06:55:49;;;;;;;6.35;4.78;;;20.70;99.90;;;;;;4153363;28;20069;-75
2021/09/15 06:57:51;;;;;;;8.65;5.05;;;20.70;99.90;;;;;;4152065;28;20044;-75
2021/09/15 06:59:51;;;;;;;7.25;5.00;;;20.80;99.90;;;;;;4151883;28;20041;-75
2021/09/15 07:01:52;;;;;;;7.90;4.75;;;20.80;99.90;;;;;;4134673;28;20073;-75
2021/09/15 07:03:52;;;;;;;8.95;5.13;;;20.80;99.90;;;;;;4147890;28;20037;-75
2021/09/15 07:05:53;;;;;;;8.02;4.75;;;20.80;99.90;;;;;;4142151;28;20065;-75
2021/09/15 07:07:55;;;;;;;8.55;5.28;;;20.90;99.90;;;;;;4152367;28;20068;-75
2021/09/15 07:09:55;;;;;;;8.45;5.32;;;20.90;99.90;;;;;;4150085;28;20056;-75
2021/09/15 07:11:56;;;;;;;9.45;5.18;;;20.80;99.90;;;;;;4152103;28;20190;-77
2021/09/15 07:14:03;;;;;;;8.35;5.22;;;20.80;99.90;;;;;;4151917;28;20526;-77
2021/09/15 07:16:05;;;;;;;8.00;4.90;;;20.90;99.90;;;;;;4153785;28;22721;-76
2021/09/15 07:18:06;;;;;;;7.03;5.00;;;20.80;99.90;;;;;;4153415;28;20128;-75
2021/09/15 07:20:08;;;;;;;7.10;5.28;;;20.90;99.90;;;;;;4153818;28;21218;-76
2021/09/15 07:22:08;;;;;;;10.25;5.20;;;20.90;99.90;;;;;;4149644;28;20076;-76
2021/09/15 07:24:10;;;;;;;7.55;5.72;;;20.90;99.90;;;;;;4153177;28;20037;-75
2021/09/15 07:26:10;;;;;;;9.30;5.47;;;20.90;99.90;;;;;;4151036;28;20398;-76
2021/09/15 07:28:12;;;;;;;9.57;5.78;;;20.90;99.90;;;;;;4134388;28;20080;-76
2021/09/15 07:30:13;;;;;;;9.10;5.78;;;20.80;99.90;;;;;;4150963;28;20091;-76
2021/09/15 07:32:14;;;;;;;7.95;6.20;;;20.90;99.90;;;;;;4151615;28;20034;-76
2021/09/15 07:34:20;;;;;;;12.25;6.80;;;20.80;99.90;;;;;;4135038;28;20034;-77
2021/09/15 07:36:21;;;;;;;10.90;6.82;;;20.90;99.90;;;;;;4153530;28;20045;-76
2021/09/15 07:38:21;;;;;;;8.10;6.03;;;20.80;99.90;;;;;;4151842;28;22081;-76
2021/09/15 07:40:22;;;;;;;8.55;5.97;;;20.80;99.90;;;;;;4151027;28;20730;-75
2021/09/15 07:42:23;;;;;;;7.40;5.30;;;20.80;99.90;;;;;;4152700;28;21420;-75
2021/09/15 07:44:24;;;;;;;9.02;5.97;;;20.70;99.90;;;;;;4154088;28;20045;-76
2021/09/15 07:46:25;;;;;;;8.25;5.70;;;20.80;99.90;;;;;;4151722;28;20037;-76
2021/09/15 07:48:26;;;;;;;8.13;5.05;;;20.80;99.90;;;;;;4150630;28;20037;-76
2021/09/15 07:50:26;;;;;;;6.72;5.20;;;20.80;99.90;;;;;;4152312;28;20057;-76
2021/09/15 07:52:27;;;;;;;9.25;6.57;;;20.80;99.90;;;;;;4152730;28;20045;-76
2021/09/15 07:54:27;;;;;;;7.57;5.55;;;20.80;99.90;;;;;;4153571;28;20045;-76
2021/09/15 07:56:28;;;;;;;7.65;5.40;;;20.80;99.90;;;;;;4151824;28;20703;-76
2021/09/15 07:58:29;;;;;;;8.07;5.57;;;20.80;99.90;;;;;;4150961;28;20037;-76
2021/09/15 08:00:29;;;;;;;7.90;5.72;;;20.80;99.90;;;;;;4150488;28;20042;-76
2021/09/15 08:02:30;;;;;;;10.02;6.00;;;20.80;99.90;;;;;;4152653;28;20560;-76
2021/09/15 08:04:31;;;;;;;8.80;5.28;;;20.80;99.90;;;;;;4151147;28;20042;-76
2021/09/15 08:06:31;;;;;;;7.63;5.70;;;20.80;99.90;;;;;;4152840;28;20385;-76
2021/09/15 08:08:33;;;;;;;7.72;5.30;;;20.90;99.90;;;;;;4152375;28;20133;-76
2021/09/15 08:10:34;;;;;;;7.53;5.20;;;20.90;99.90;;;;;;4151996;28;20103;-76
2021/09/15 08:12:34;;;;;;;7.15;5.57;;;20.90;99.90;;;;;;4151637;28;20049;-76
2021/09/15 08:14:35;;;;;;;7.00;5.35;;;20.90;99.90;;;;;;4150320;28;20430;-76
2021/09/15 08:16:38;;;;;;;7.13;5.00;;;20.80;99.90;;;;;;4153840;28;20102;-76
2021/09/15 08:18:38;;;;;;;;;;;20.70;99.90;;;;;;4134349;28;20060;-76
2021/09/15 08:20:45;;;;;;;4.53;3.50;;;20.70;99.90;;;;;;4152041;28;19917;-76
2021/09/15 08:22:46;;;;;;;3.80;3.30;;;20.70;99.90;;;;;;4150082;28;20128;-77
2021/09/15 08:24:47;;;;;;;5.45;3.33;;;20.80;99.90;;;;;;4153625;28;20079;-76
2021/09/15 08:26:47;;;;;;;5.03;3.53;;;20.80;99.90;;;;;;4153445;28;20059;-77
2021/09/15 08:28:48;;;;;;;3.80;3.28;;;20.80;99.90;;;;;;4136261;28;20034;-77
2021/09/15 08:30:50;;;;;;;5.70;3.80;;;20.80;99.90;;;;;;4127535;28;20413;-77
2021/09/15 08:32:51;;;;;;;5.13;3.37;;;20.80;99.90;;;;;;4152987;28;20049;-77
2021/09/15 08:34:52;;;;;;;3.63;3.08;;;20.90;99.90;;;;;;4154753;28;20554;-77
2021/09/15 08:36:53;;;;;;;6.20;3.63;;;20.80;99.90;;;;;;4157811;28;20041;-77
2021/09/15 08:38:54;;;;;;;3.72;2.78;;;20.80;99.90;;;;;;4157129;28;20055;-76
2021/09/15 08:40:56;;;;;;;3.17;2.40;;;20.90;99.90;;;;;;4156235;28;20042;-76
2021/09/15 08:42:57;;;;;;;2.75;2.08;;;20.90;99.90;;;;;;4155237;28;20072;-76
2021/09/15 08:44:57;;;;;;;4.63;2.90;;;20.90;99.90;;;;;;4154782;28;20045;-76
2021/09/15 08:46:59;;;;;;;3.85;3.08;;;20.90;99.90;;;;;;4155597;28;20904;-77
2021/09/15 08:49:01;;;;;;;4.22;3.03;;;20.80;99.90;;;;;;4156078;28;20037;-76
2021/09/15 08:51:02;;;;;;;2.65;2.45;;;20.80;99.90;;;;;;4154045;28;20056;-76
2021/09/15 08:53:03;;;;;;;3.53;2.53;;;20.80;99.90;;;;;;4157745;28;20037;-77
2021/09/15 08:55:05;;;;;;;2.67;2.17;;;20.80;99.90;;;;;;4153667;28;21220;-75
2021/09/15 08:57:05;;;;;;;3.33;2.40;;;20.80;99.90;;;;;;4152370;28;20612;-76
2021/09/15 08:59:06;;;;;;;3.05;1.88;;;20.80;99.90;;;;;;4152512;28;20165;-76
2021/09/15 09:01:14;;;;;;;2.75;1.77;;;20.80;99.90;;;;;;4158007;28;20030;-79
2021/09/15 09:03:14;;;;;;;2.42;1.90;;;20.80;99.90;;;;;;4171373;28;20095;-76
2021/09/15 09:05:15;;;;;;;2.10;1.42;;;20.80;99.90;;;;;;4171425;28;20040;-76
2021/09/15 09:07:16;;;;;;;1.98;1.48;;;20.80;99.90;;;;;;4154010;28;20030;-75
2021/09/15 09:09:17;;;;;;;1.27;1.02;;;20.70;99.90;;;;;;4171389;28;20104;-77
2021/09/15 09:11:18;;;;;;;3.90;1.23;;;20.70;99.90;;;;;;4172871;28;20368;-76
2021/09/15 09:13:19;;;;;;;1.80;1.40;;;20.70;99.90;;;;;;4171134;28;20455;-76
2021/09/15 09:15:25;;;;;;;2.03;1.40;;;20.70;99.90;;;;;;4169561;28;20118;-76
2021/09/15 09:17:31;;;;;;;2.25;1.20;;;20.80;99.90;;;;;;4171367;28;20043;-76
2021/09/15 09:19:32;;;;;;;1.85;1.40;;;20.80;99.90;;;;;;4172154;28;20622;-76
2021/09/15 09:21:36;;;;;;;1.75;1.10;;;20.70;99.90;;;;;;4171020;28;20102;-76
2021/09/15 09:23:38;;;;;;;3.08;1.38;;;20.70;99.90;;;;;;4171124;28;20037;-76
2021/09/15 09:25:46;;;;;;;1.67;1.02;;;20.80;99.90;;;;;;4165358;28;20523;-76
2021/09/15 09:27:47;;;;;;;2.03;1.38;;;20.80;99.90;;;;;;4162778;28;20135;-76
2021/09/15 09:29:47;;;;;;;1.92;1.35;;;20.80;99.90;;;;;;4168254;28;20119;-76
2021/09/15 09:31:58;;;;;;;3.10;1.63;;;20.80;99.90;;;;;;4169030;28;20108;-76
2021/09/15 09:34:04;;;;;;;1.80;1.27;;;20.80;99.90;;;;;;4148300;28;20045;-76
2021/09/15 09:36:07;;;;;;;2.65;1.30;;;20.90;99.90;;;;;;4149849;28;20681;-76
2021/09/15 09:38:25;;;;;;;1.23;1.00;;;20.90;99.90;;;;;;4147640;28;20037;-76
2021/09/15 09:40:27;;;;;;;1.42;1.30;;;20.90;99.90;;;;;;4166426;28;20057;-76
2021/09/15 09:42:30;;;;;;;1.15;1.05;;;20.90;99.90;;;;;;4169135;28;20040;-76
2021/09/15 09:44:30;;;;;;;2.35;1.00;;;21.00;99.90;;;;;;4169057;28;20045;-76
2021/09/15 09:46:34;;;;;;;1.25;1.15;;;21.00;99.90;;;;;;4167199;28;20037;-76
2021/09/15 09:48:41;;;;;;;1.25;0.93;;;21.00;99.90;;;;;;4167021;28;20586;-75
2021/09/15 09:50:41;;;;;;;1.50;1.38;;;21.00;99.90;;;;;;4168117;28;20113;-76
2021/09/15 09:53:00;;;;;;;2.67;1.85;;;21.00;99.90;;;;;;4165302;28;20068;-75
2021/09/15 09:55:03;;;;;;;2.28;1.55;;;21.00;99.90;;;;;;4167460;28;20041;-76
2021/09/15 09:57:04;;;;;;;3.55;2.17;;;21.00;99.90;;;;;;4168563;28;20048;-76
2021/09/15 09:59:06;;;;;;;2.10;1.77;;;21.00;99.90;;;;;;4166986;28;20714;-76
2021/09/15 10:01:06;;;;;;;3.40;2.47;;;21.00;99.90;;;;;;4167983;28;20118;-76
2021/09/15 10:03:08;;;;;;;3.40;1.90;;;21.00;99.90;;;;;;4152281;28;20042;-76
2021/09/15 10:05:09;;;;;;;3.55;2.22;;;21.00;99.90;;;;;;4168553;28;20045;-76
2021/09/15 10:07:12;;;;;;;2.40;2.10;;;21.00;99.90;;;;;;4170088;28;20052;-76
2021/09/15 10:09:13;;;;;;;3.20;2.75;;;21.00;99.90;;;;;;4168751;28;20033;-76
2021/09/15 10:11:15;;;;;;;3.28;2.70;;;21.00;99.90;;;;;;4150100;28;20040;-76
2021/09/15 10:13:17;;;;;;;3.38;3.05;;;21.10;99.90;;;;;;4149469;28;20037;-76
2021/09/15 10:15:18;;;;;;;2.90;2.60;;;21.10;99.90;;;;;;4150352;28;20048;-76
2021/09/15 10:17:25;;;;;;;3.45;2.90;;;21.10;99.90;;;;;;4165810;28;20040;-76
2021/09/15 10:19:32;;;;;;;4.45;3.28;;;21.10;99.90;;;;;;4168398;28;20111;-76
2021/09/15 10:21:35;;;;;;;4.60;3.10;;;21.10;99.90;;;;;;4172162;28;20041;-76
2021/09/15 10:23:41;;;;;;;4.57;3.60;;;21.10;99.90;;;;;;4170755;28;21575;-76
2021/09/15 10:25:41;;;;;;;4.03;3.63;;;21.20;99.90;;;;;;4170693;28;20044;-76
2021/09/15 10:28:07;;;;;;;5.63;4.53;;;21.20;99.90;;;;;;4152729;28;20137;-76
2021/09/15 10:30:17;;;;;;;5.55;4.28;;;21.10;99.90;;;;;;4169279;28;20039;-75
2021/09/15 10:32:34;;;;;;;4.85;3.90;;;21.10;99.90;;;;;;4168740;28;20033;-76
2021/09/15 10:34:40;;;;;;;5.72;4.40;;;21.10;99.90;;;;;;4141272;28;20121;-76
2021/09/15 10:36:41;;;;;;;4.78;4.28;;;21.20;99.90;;;;;;4134545;28;20054;-75
2021/09/15 10:38:58;;;;;;;5.43;4.85;;;21.10;99.90;;;;;;4154096;28;20684;-76
2021/09/15 10:40:58;;;;;;;5.32;4.30;;;21.20;99.90;;;;;;4151346;28;20054;-76